Time;durP1;ratioP1;P1;durP2;ratioP2;P2;SDS_P1;SDS_P2;PMS_P1;PMS_P2;Temp;Humidity;BMP_temperature;BMP_pressure;BME280_temperature;BME280_humidity;BME280_pressure;Samples;Min_cycle;Max_cycle;Signal;HPM_P1;HPM_P2
2022/01/12 00:01:10;;;;;;;141.27;9.48;;;27.20;76.30;;;;;;5046290;28;20013;-50
2022/01/12 00:03:38;;;;;;;153.90;10.50;;;27.20;76.10;;;;;;5044929;28;20397;-46
2022/01/12 00:06:05;;;;;;;246.80;18.85;;;27.10;75.70;;;;;;5049320;28;20053;-46
2022/01/12 00:08:32;;;;;;;95.47;11.18;;;27.10;75.20;;;;;;5065014;28;20352;-42
2022/01/12 00:11:00;;;;;;;39.25;6.88;;;27.10;75.10;;;;;;5060281;28;20079;-47
2022/01/12 00:13:27;;;;;;;33.50;5.90;;;27.10;74.70;;;;;;5061987;28;20025;-43
2022/01/12 00:15:54;;;;;;;47.72;6.75;;;27.10;74.80;;;;;;5033674;28;20024;-46
2022/01/12 00:18:21;;;;;;;35.67;5.40;;;27.10;74.60;;;;;;5045745;28;20026;-49
2022/01/12 00:20:49;;;;;;;36.45;5.85;;;27.10;74.10;;;;;;5045762;28;20072;-49
2022/01/12 00:23:17;;;;;;;28.85;5.13;;;27.10;74.20;;;;;;5048461;28;20032;-46
2022/01/12 00:33:59;;;;;;;13.32;4.60;;;27.10;73.40;;;;;;5065456;28;20383;-50
2022/01/12 00:36:27;;;;;;;15.77;4.10;;;27.10;73.20;;;;;;5065497;28;20040;-44
2022/01/12 00:38:54;;;;;;;25.27;5.20;;;27.10;72.80;;;;;;5064605;28;20087;-48
2022/01/12 00:41:21;;;;;;;19.45;4.22;;;27.10;72.90;;;;;;5064959;28;20021;-43
2022/01/12 00:43:56;;;;;;;16.05;4.35;;;27.10;72.50;;;;;;5064749;28;20032;-53
2022/01/12 00:46:22;;;;;;;27.40;4.30;;;27.10;72.30;;;;;;5065504;28;20047;-43
2022/01/12 00:48:49;;;;;;;27.83;3.95;;;27.00;71.90;;;;;;5042657;28;20028;-41
2022/01/12 00:51:17;;;;;;;24.10;4.20;;;27.10;72.10;;;;;;5043803;28;20048;-50
2022/01/12 00:53:43;;;;;;;20.83;3.92;;;27.10;72.00;;;;;;5045090;28;20024;-49
2022/01/12 00:56:13;;;;;;;15.88;3.38;;;27.10;71.80;;;;;;5050889;28;20059;-54
2022/01/12 00:58:41;;;;;;;15.02;2.97;;;27.10;71.70;;;;;;5056758;28;20017;-45
2022/01/12 01:01:08;;;;;;;14.45;2.85;;;27.10;71.50;;;;;;5053405;28;20018;-46
2022/01/12 01:03:35;;;;;;;15.18;3.08;;;27.10;71.50;;;;;;5054991;28;20044;-40
2022/01/12 01:06:01;;;;;;;6.65;2.20;;;27.10;71.70;;;;;;5027384;28;20255;-39
2022/01/12 01:08:28;;;;;;;8.73;2.50;;;27.10;71.50;;;;;;5044031;28;20089;-44
2022/01/12 01:10:56;;;;;;;15.93;3.00;;;27.10;71.60;;;;;;5054665;28;20037;-42
2022/01/12 01:13:27;;;;;;;19.65;3.22;;;27.10;71.50;;;;;;5040836;28;20036;-43
2022/01/12 01:16:03;;;;;;;27.90;3.60;;;27.10;71.50;;;;;;5044513;28;20329;-43
2022/01/12 01:26:51;;;;;;;20.38;3.33;;;27.00;71.70;;;;;;5050933;28;20222;-57
2022/01/12 01:29:20;;;;;;;12.65;2.95;;;27.10;71.90;;;;;;5052942;28;20209;-42
2022/01/12 01:31:47;;;;;;;14.55;3.05;;;27.00;72.00;;;;;;5064800;28;20056;-45
2022/01/12 01:34:15;;;;;;;22.77;3.28;;;27.00;71.90;;;;;;5046751;28;20374;-43
2022/01/12 01:36:49;;;;;;;14.82;3.50;;;27.00;71.90;;;;;;5056664;28;20065;-48
2022/01/12 01:39:22;;;;;;;11.50;3.00;;;27.00;71.80;;;;;;5060720;28;20369;-42
2022/01/12 01:41:56;;;;;;;9.90;3.50;;;27.10;71.60;;;;;;5064456;28;20028;-40
2022/01/12 01:55:17;;;;;;;20.38;4.38;;;27.00;71.20;;;;;;5044303;28;20097;-40
2022/01/12 01:57:44;;;;;;;26.10;4.35;;;27.00;71.40;;;;;;5044744;28;20389;-46
2022/01/12 02:00:17;;;;;;;16.38;3.72;;;27.00;71.20;;;;;;5044246;28;20084;-45
2022/01/12 02:02:46;;;;;;;12.82;3.63;;;27.00;70.90;;;;;;5044386;28;20029;-42
2022/01/12 02:05:13;;;;;;;14.07;3.70;;;27.00;71.10;;;;;;5043968;28;20013;-40
2022/01/12 02:07:41;;;;;;;8.02;3.53;;;26.90;71.00;;;;;;5029562;28;20076;-41
2022/01/12 02:10:08;;;;;;;9.15;3.53;;;26.90;70.90;;;;;;5055034;28;20017;-50
2022/01/12 02:12:35;;;;;;;10.43;4.05;;;26.90;70.90;;;;;;5060530;28;20021;-42
2022/01/12 02:15:03;;;;;;;9.23;4.30;;;26.90;70.90;;;;;;5052966;28;20014;-42
2022/01/12 02:17:36;;;;;;;11.35;4.40;;;26.90;70.80;;;;;;5044347;28;20210;-43
2022/01/12 02:36:29;;;;;;;14.70;4.57;;;26.90;71.50;;;;;;5043723;28;20028;-46
2022/01/12 02:41:42;;;;;;;8.80;4.07;;;26.90;71.60;;;;;;5051992;28;20055;-41
2022/01/12 02:55:24;;;;;;;8.98;4.57;;;27.00;72.00;;;;;;5021979;28;20017;-47
2022/01/12 02:57:51;;;;;;;6.88;3.95;;;26.90;72.00;;;;;;5039214;28;20326;-42
2022/01/12 03:00:20;;;;;;;6.82;3.63;;;26.90;72.00;;;;;;5050890;28;20023;-43
2022/01/12 03:03:01;;;;;;;9.55;4.20;;;26.90;72.00;;;;;;5061977;28;20111;-49
2022/01/12 03:05:44;;;;;;;5.75;3.58;;;26.90;71.90;;;;;;5051547;28;20040;-49
2022/01/12 03:08:15;;;;;;;7.53;4.07;;;26.90;72.00;;;;;;5063595;28;20028;-42
2022/01/12 03:10:42;;;;;;;8.75;4.25;;;26.90;71.80;;;;;;5055290;28;20021;-43
2022/01/12 03:13:08;;;;;;;8.50;3.80;;;26.90;71.90;;;;;;5059240;28;20062;-44
2022/01/12 03:15:40;;;;;;;6.55;4.15;;;26.90;71.90;;;;;;5063203;28;20017;-46
2022/01/12 03:18:06;;;;;;;7.67;3.93;;;26.90;71.90;;;;;;5060461;28;20036;-41
2022/01/12 03:20:33;;;;;;;8.88;3.95;;;26.90;71.90;;;;;;5062959;28;20084;-44
2022/01/12 03:23:01;;;;;;;6.80;3.67;;;26.90;71.90;;;;;;5063844;28;20040;-46
2022/01/12 03:25:27;;;;;;;8.15;3.88;;;26.90;71.90;;;;;;5063052;28;20025;-42
2022/01/12 03:28:00;;;;;;;7.63;4.00;;;26.90;71.90;;;;;;5054730;28;20245;-50
2022/01/12 03:30:34;;;;;;;8.05;3.90;;;26.90;71.90;;;;;;5043185;28;20036;-41
2022/01/12 03:33:10;;;;;;;7.70;4.18;;;26.90;71.90;;;;;;5052328;28;20102;-46
2022/01/12 03:36:12;;;;;;;7.68;4.00;;;26.90;71.90;;;;;;5062720;28;20044;-45
2022/01/12 03:38:35;;;;;;;8.88;4.18;;;26.90;71.90;;;;;;5060637;28;20095;-44
2022/01/12 03:41:02;;;;;;;5.50;3.75;;;26.90;71.90;;;;;;5066353;28;20095;-48
2022/01/12 03:43:28;;;;;;;5.55;3.90;;;26.90;71.80;;;;;;5065521;28;20028;-43
2022/01/12 03:45:55;;;;;;;7.40;4.15;;;26.90;71.80;;;;;;5066632;28;20082;-45
2022/01/12 03:48:21;;;;;;;6.45;4.10;;;26.90;71.90;;;;;;5063537;28;20384;-45
2022/01/12 03:50:49;;;;;;;6.20;3.42;;;26.90;71.80;;;;;;5063596;28;20245;-45
2022/01/12 03:53:16;;;;;;;6.65;3.50;;;26.90;71.80;;;;;;5055078;28;20025;-45
2022/01/12 03:55:43;;;;;;;7.00;3.95;;;26.90;71.90;;;;;;5049197;28;20017;-45
2022/01/12 03:58:11;;;;;;;7.38;4.18;;;26.90;71.90;;;;;;5047076;28;20254;-42
2022/01/12 04:00:38;;;;;;;9.43;4.15;;;26.90;71.90;;;;;;5046311;28;20017;-44
2022/01/12 04:03:07;;;;;;;8.55;3.88;;;26.90;71.90;;;;;;5046959;28;20051;-40
2022/01/12 04:08:21;;;;;;;5.80;3.88;;;26.90;72.00;;;;;;5050165;28;20047;-52
2022/01/12 04:11:00;;;;;;;7.78;3.90;;;26.90;72.00;;;;;;5065898;28;20068;-51
2022/01/12 04:13:31;;;;;;;6.40;3.75;;;26.90;72.00;;;;;;5064475;28;20059;-47
2022/01/12 04:16:04;;;;;;;11.85;4.05;;;26.90;71.90;;;;;;5064561;28;20016;-45
2022/01/12 04:18:31;;;;;;;9.63;3.70;;;26.90;72.00;;;;;;5064146;28;20075;-47
2022/01/12 04:21:01;;;;;;;6.05;3.80;;;26.90;72.00;;;;;;5064273;28;20305;-41
2022/01/12 04:23:27;;;;;;;7.68;3.80;;;26.90;72.00;;;;;;5064398;28;20017;-40
2022/01/12 04:25:57;;;;;;;5.88;3.90;;;26.90;72.10;;;;;;5064512;28;20021;-42
2022/01/12 04:28:25;;;;;;;5.18;3.80;;;26.90;72.10;;;;;;5064566;28;20213;-44
2022/01/12 04:30:54;;;;;;;8.55;4.05;;;26.90;72.10;;;;;;5065104;28;20017;-43
2022/01/12 04:33:21;;;;;;;8.63;4.00;;;26.90;72.20;;;;;;5065455;28;20045;-47
2022/01/12 04:35:52;;;;;;;7.60;4.53;;;26.90;72.20;;;;;;5065908;28;20025;-44
2022/01/12 04:38:22;;;;;;;5.68;3.60;;;26.90;72.20;;;;;;5065754;28;20024;-46
2022/01/12 04:40:49;;;;;;;6.70;4.05;;;26.90;72.30;;;;;;5065655;28;20017;-43
2022/01/12 04:43:17;;;;;;;6.13;3.47;;;26.90;72.30;;;;;;5065952;28;20329;-50
2022/01/12 04:50:51;;;;;;;8.52;4.35;;;26.90;72.30;;;;;;5065068;28;20088;-43
2022/01/12 04:53:19;;;;;;;6.88;4.07;;;26.90;72.30;;;;;;5065354;28;20025;-42
2022/01/12 04:55:48;;;;;;;6.45;3.53;;;26.80;72.20;;;;;;5047788;28;20214;-54
2022/01/12 04:58:15;;;;;;;6.70;3.92;;;26.80;72.10;;;;;;5065946;28;20297;-47
2022/01/12 05:00:43;;;;;;;7.40;3.80;;;26.80;72.20;;;;;;5065287;28;20017;-42
2022/01/12 05:13:55;;;;;;;7.20;4.15;;;26.80;72.30;;;;;;5065063;28;20031;-46
2022/01/12 05:16:23;;;;;;;5.50;3.97;;;26.80;72.40;;;;;;5064129;28;20013;-43
2022/01/12 05:18:52;;;;;;;13.25;4.20;;;26.80;72.40;;;;;;5044973;28;20057;-46
2022/01/12 05:21:21;;;;;;;5.45;4.00;;;26.80;72.40;;;;;;5045201;28;20396;-50
2022/01/12 05:23:48;;;;;;;8.30;4.35;;;26.80;72.50;;;;;;5044936;28;20060;-47
2022/01/12 05:26:15;;;;;;;7.68;4.53;;;26.80;72.50;;;;;;5044811;28;20036;-41
2022/01/12 05:28:42;;;;;;;5.35;3.70;;;26.80;72.60;;;;;;5044916;28;20028;-51
2022/01/12 05:31:11;;;;;;;6.30;4.18;;;26.80;72.60;;;;;;5044681;28;20026;-45
2022/01/12 05:33:40;;;;;;;5.47;4.00;;;26.80;72.80;;;;;;5044520;28;20108;-43
2022/01/12 05:36:07;;;;;;;8.80;4.50;;;26.80;72.80;;;;;;5044632;28;20041;-43
2022/01/12 05:38:34;;;;;;;10.25;4.28;;;26.80;72.90;;;;;;5044603;28;20084;-45
2022/01/12 05:41:05;;;;;;;7.00;4.45;;;26.80;72.90;;;;;;5044794;28;20021;-49
2022/01/12 05:43:33;;;;;;;5.05;3.95;;;26.80;72.90;;;;;;5044557;28;20397;-49
2022/01/12 05:46:09;;;;;;;7.50;4.03;;;26.80;72.90;;;;;;5044579;28;20260;-42
2022/01/12 05:51:29;;;;;;;7.72;4.07;;;26.80;72.80;;;;;;5044682;28;20055;-41
2022/01/12 05:53:56;;;;;;;5.47;3.88;;;26.80;72.70;;;;;;5044363;28;20021;-42
2022/01/12 05:56:23;;;;;;;5.88;3.55;;;26.70;72.70;;;;;;5044348;28;20029;-56
2022/01/12 05:58:50;;;;;;;5.43;3.92;;;26.70;72.70;;;;;;5044380;28;20191;-45
2022/01/12 06:01:18;;;;;;;5.30;3.47;;;26.70;72.70;;;;;;5043498;28;20161;-48
2022/01/12 06:03:44;;;;;;;6.40;3.70;;;26.70;72.80;;;;;;5044017;28;20036;-43
2022/01/12 06:06:11;;;;;;;5.82;3.67;;;26.70;72.90;;;;;;5044237;28;20045;-42
2022/01/12 06:08:37;;;;;;;5.38;3.40;;;26.80;73.10;;;;;;5044258;28;20225;-49
2022/01/12 06:11:04;;;;;;;8.18;4.00;;;26.70;73.00;;;;;;5043926;28;20026;-47
2022/01/12 06:13:31;;;;;;;7.90;3.72;;;26.70;73.00;;;;;;5044032;28;20035;-48
2022/01/12 06:15:57;;;;;;;5.72;3.70;;;26.70;73.00;;;;;;5043953;28;20021;-49
2022/01/12 06:18:24;;;;;;;6.28;3.40;;;26.70;73.10;;;;;;5043965;28;20234;-49
2022/01/12 06:20:50;;;;;;;5.82;4.13;;;26.70;73.20;;;;;;5043882;28;20332;-46
2022/01/12 06:23:17;;;;;;;7.30;3.80;;;26.70;73.30;;;;;;5043916;28;20036;-52
2022/01/12 06:25:44;;;;;;;5.72;3.65;;;26.70;73.40;;;;;;5043882;28;20328;-50
2022/01/12 06:28:36;;;;;;;6.25;3.55;;;26.70;73.40;;;;;;5044226;28;20037;-49
2022/01/12 06:31:11;;;;;;;8.18;4.05;;;26.70;73.50;;;;;;5044056;28;20247;-50
2022/01/12 06:33:40;;;;;;;5.30;3.70;;;26.70;73.50;;;;;;5043503;28;20096;-52
2022/01/12 06:36:07;;;;;;;9.13;3.70;;;26.70;73.60;;;;;;5043853;28;20021;-46
2022/01/12 06:38:34;;;;;;;8.68;4.20;;;26.70;73.60;;;;;;5043694;28;20029;-53
2022/01/12 06:41:01;;;;;;;6.07;3.90;;;26.60;73.50;;;;;;5043619;28;20191;-48
2022/01/12 06:43:28;;;;;;;7.00;3.85;;;26.60;73.60;;;;;;5043797;28;20051;-51
2022/01/12 06:45:56;;;;;;;5.47;3.60;;;26.60;73.50;;;;;;5043583;28;20045;-51
2022/01/12 06:48:22;;;;;;;6.60;3.70;;;26.70;73.50;;;;;;5043548;28;20029;-46
2022/01/12 06:50:49;;;;;;;5.13;3.97;;;26.60;73.40;;;;;;5043738;28;20017;-47
2022/01/12 06:53:16;;;;;;;6.65;3.97;;;26.70;73.50;;;;;;5043493;28;20075;-45
2022/01/12 06:55:43;;;;;;;6.03;3.90;;;26.60;73.40;;;;;;5043552;28;20233;-46
2022/01/12 06:58:10;;;;;;;6.10;4.15;;;26.60;73.40;;;;;;5044013;28;20052;-45
2022/01/12 07:00:36;;;;;;;7.68;4.15;;;26.60;73.40;;;;;;5043486;28;20029;-46
2022/01/12 07:03:03;;;;;;;6.43;3.95;;;26.60;73.50;;;;;;5043909;28;20174;-48
2022/01/12 07:05:30;;;;;;;6.60;3.92;;;26.60;73.50;;;;;;5043501;28;20025;-49
2022/01/12 07:07:56;;;;;;;6.22;3.90;;;26.60;73.50;;;;;;5043884;28;20190;-53
2022/01/12 07:10:24;;;;;;;6.82;3.80;;;26.60;73.60;;;;;;5043423;28;20021;-46
2022/01/12 07:12:50;;;;;;;6.78;4.18;;;26.60;73.60;;;;;;5045432;28;20297;-53
2022/01/12 07:15:17;;;;;;;7.05;4.45;;;26.60;73.50;;;;;;5047372;28;20018;-45
2022/01/12 07:17:44;;;;;;;8.57;3.65;;;26.60;73.50;;;;;;5047709;28;20033;-46
2022/01/12 07:20:11;;;;;;;7.50;3.78;;;26.60;73.50;;;;;;5047274;28;20014;-51
2022/01/12 07:22:37;;;;;;;6.10;3.83;;;26.60;73.50;;;;;;5047517;28;20216;-52
2022/01/12 07:25:04;;;;;;;8.40;3.78;;;26.60;73.50;;;;;;5047251;28;20049;-52
2022/01/12 07:27:31;;;;;;;7.88;4.00;;;26.60;73.40;;;;;;5047580;28;20036;-48
2022/01/12 07:29:58;;;;;;;6.15;4.13;;;26.60;73.40;;;;;;5047070;28;20028;-52
2022/01/12 07:32:24;;;;;;;10.48;3.90;;;26.60;73.40;;;;;;5047377;28;20029;-53
2022/01/12 07:34:51;;;;;;;7.95;3.63;;;26.60;73.40;;;;;;5046893;28;20048;-47
2022/01/12 07:37:18;;;;;;;7.93;4.07;;;26.60;73.40;;;;;;5047332;28;20026;-43
2022/01/12 07:39:45;;;;;;;5.70;3.78;;;26.60;73.40;;;;;;5058139;28;20302;-48
2022/01/12 07:42:11;;;;;;;6.07;4.25;;;26.60;73.40;;;;;;5067373;28;20381;-50
2022/01/12 07:44:39;;;;;;;10.50;4.00;;;26.60;73.40;;;;;;5067080;28;20306;-48
2022/01/12 07:47:06;;;;;;;7.40;3.63;;;26.60;73.40;;;;;;5066852;28;20037;-49
2022/01/12 07:49:34;;;;;;;4.97;3.70;;;26.60;73.50;;;;;;5066508;28;20092;-48
2022/01/12 07:52:01;;;;;;;4.60;3.60;;;26.60;73.50;;;;;;5066999;28;20028;-52
2022/01/12 07:54:27;;;;;;;11.55;4.18;;;26.60;73.70;;;;;;5066419;28;20258;-52
2022/01/12 07:56:54;;;;;;;5.35;3.70;;;26.60;73.70;;;;;;5066775;28;20025;-62
2022/01/12 07:59:20;;;;;;;6.57;3.70;;;26.60;73.80;;;;;;5066560;28;20094;-51
2022/01/12 08:01:47;;;;;;;7.50;3.35;;;26.60;73.70;;;;;;5066475;28;20028;-53
2022/01/12 08:04:13;;;;;;;6.13;3.90;;;26.60;73.70;;;;;;5066418;28;20044;-50
2022/01/12 08:06:40;;;;;;;8.13;3.70;;;26.60;73.80;;;;;;5066544;28;20025;-50
2022/01/12 08:09:07;;;;;;;5.63;3.70;;;26.60;73.80;;;;;;5066201;28;20021;-48
2022/01/12 08:11:34;;;;;;;7.38;3.72;;;26.60;73.80;;;;;;5066379;28;20253;-50
2022/01/12 08:14:01;;;;;;;7.28;3.58;;;26.50;73.80;;;;;;5066210;28;20021;-47
2022/01/12 08:16:27;;;;;;;5.60;3.80;;;26.60;73.90;;;;;;5066139;28;20021;-49
2022/01/12 08:18:56;;;;;;;6.38;3.78;;;26.60;73.90;;;;;;5066235;28;20076;-45
2022/01/12 08:21:24;;;;;;;8.52;3.95;;;26.50;73.90;;;;;;5066347;28;20091;-49
2022/01/12 08:23:50;;;;;;;8.90;4.25;;;26.50;73.90;;;;;;5064872;28;20020;-47
2022/01/12 08:26:17;;;;;;;8.20;3.72;;;26.50;73.80;;;;;;5066172;28;20079;-52
2022/01/12 08:28:43;;;;;;;5.15;3.67;;;26.50;73.80;;;;;;5066053;28;20029;-51
2022/01/12 08:31:10;;;;;;;4.72;3.60;;;26.50;73.80;;;;;;5065805;28;20044;-47
2022/01/12 08:33:37;;;;;;;6.22;3.90;;;26.50;73.70;;;;;;5065760;28;20045;-48
2022/01/12 08:36:04;;;;;;;7.18;3.60;;;26.50;73.80;;;;;;5065862;28;20072;-45
2022/01/12 08:38:31;;;;;;;5.18;3.63;;;26.50;73.70;;;;;;5065647;28;20028;-47
2022/01/12 08:40:57;;;;;;;6.32;3.60;;;26.50;73.60;;;;;;5065765;28;20012;-50
2022/01/12 08:43:24;;;;;;;5.82;4.10;;;26.50;73.50;;;;;;5065781;28;20016;-48
2022/01/12 08:45:53;;;;;;;7.65;3.85;;;26.50;73.50;;;;;;5065536;28;20020;-42
2022/01/12 08:48:21;;;;;;;6.95;3.58;;;26.50;73.40;;;;;;5065647;28;20265;-45
2022/01/12 08:50:48;;;;;;;6.13;3.42;;;26.50;73.40;;;;;;5065651;28;20024;-44
2022/01/12 08:53:15;;;;;;;6.70;3.50;;;26.50;73.30;;;;;;5065869;28;20021;-46
2022/01/12 08:55:41;;;;;;;5.78;3.40;;;26.50;73.40;;;;;;5065639;28;20017;-44
2022/01/12 08:58:08;;;;;;;7.78;3.60;;;26.50;73.40;;;;;;5066012;28;20029;-47
2022/01/12 09:00:35;;;;;;;6.07;3.47;;;26.40;73.30;;;;;;5065207;28;20017;-53
2022/01/12 09:03:02;;;;;;;5.60;3.30;;;26.40;73.30;;;;;;5065736;28;20025;-46
2022/01/12 09:05:29;;;;;;;5.55;3.65;;;26.40;73.40;;;;;;5065292;28;20045;-45
2022/01/12 09:07:56;;;;;;;6.38;3.75;;;26.40;73.40;;;;;;5065620;28;20024;-48
2022/01/12 09:10:23;;;;;;;8.05;3.67;;;26.40;73.40;;;;;;5065288;28;20013;-47
2022/01/12 09:12:50;;;;;;;7.53;3.30;;;26.40;73.50;;;;;;5065545;28;20147;-43
2022/01/12 09:15:16;;;;;;;5.43;3.60;;;26.40;73.50;;;;;;5064972;28;20020;-53
2022/01/12 09:17:46;;;;;;;7.03;3.95;;;26.40;73.50;;;;;;5065459;28;20213;-48
2022/01/12 09:20:13;;;;;;;19.88;4.60;;;26.40;73.60;;;;;;5064968;28;20301;-45
2022/01/12 09:22:40;;;;;;;7.50;3.80;;;26.40;73.60;;;;;;5065219;28;20052;-48
2022/01/12 09:25:07;;;;;;;5.47;3.95;;;26.40;73.60;;;;;;5064829;28;20225;-47
2022/01/12 09:27:34;;;;;;;6.82;3.85;;;26.40;73.60;;;;;;5065299;28;20035;-47
2022/01/12 09:30:00;;;;;;;6.22;3.72;;;26.40;73.70;;;;;;5064958;28;20205;-49
2022/01/12 09:32:27;;;;;;;7.22;3.60;;;26.40;73.70;;;;;;5065286;28;20037;-50
2022/01/12 09:34:54;;;;;;;6.13;4.05;;;26.40;73.60;;;;;;5064367;28;20294;-48
2022/01/12 09:37:21;;;;;;;7.65;3.45;;;26.40;73.60;;;;;;5065060;28;20021;-46
2022/01/12 09:39:47;;;;;;;7.35;3.65;;;26.40;73.50;;;;;;5064690;28;20024;-45
2022/01/12 09:42:14;;;;;;;7.70;3.95;;;26.40;73.60;;;;;;5064939;28;20246;-42
2022/01/12 09:44:45;;;;;;;6.93;4.07;;;26.40;73.50;;;;;;5064619;28;20086;-45
2022/01/12 09:47:12;;;;;;;6.40;3.80;;;26.40;73.60;;;;;;5064737;28;20324;-44
2022/01/12 09:49:41;;;;;;;6.28;3.78;;;26.40;73.50;;;;;;5064474;28;20289;-43
2022/01/12 09:52:08;;;;;;;9.95;3.78;;;26.40;73.60;;;;;;5064559;28;20052;-44
2022/01/12 09:54:36;;;;;;;6.32;4.07;;;26.30;73.50;;;;;;5064237;28;20032;-51
2022/01/12 09:57:04;;;;;;;5.95;4.05;;;26.30;73.50;;;;;;5064513;28;20301;-42
2022/01/12 09:59:31;;;;;;;7.55;3.97;;;26.30;73.60;;;;;;5064230;28;20036;-46
2022/01/12 10:01:59;;;;;;;7.43;4.28;;;26.30;73.60;;;;;;5064334;28;20063;-42
2022/01/12 10:04:27;;;;;;;6.65;3.80;;;26.40;73.70;;;;;;5064236;28;20071;-46
2022/01/12 10:07:04;;;;;;;11.02;4.28;;;26.30;73.60;;;;;;5064282;28;20096;-47
2022/01/12 10:09:43;;;;;;;7.65;3.88;;;26.30;73.70;;;;;;5064188;28;20084;-47
2022/01/12 10:12:14;;;;;;;5.72;3.80;;;26.30;73.70;;;;;;5064150;28;20036;-43
2022/01/12 10:14:52;;;;;;;7.47;4.38;;;26.30;73.70;;;;;;5063943;28;20024;-44
2022/01/12 10:17:29;;;;;;;7.30;4.15;;;26.30;74.20;;;;;;5064184;28;20314;-44
2022/01/12 10:20:07;;;;;;;10.25;4.07;;;26.30;73.70;;;;;;5064027;28;20025;-43
2022/01/12 10:22:34;;;;;;;10.50;4.03;;;26.30;73.70;;;;;;5064335;28;20021;-42
2022/01/12 10:25:13;;;;;;;10.43;4.40;;;26.30;73.60;;;;;;5063802;28;20017;-50
2022/01/12 10:27:40;;;;;;;7.35;3.85;;;26.30;73.60;;;;;;5064429;28;20040;-45
2022/01/12 10:30:08;;;;;;;14.32;4.45;;;26.30;73.60;;;;;;5063751;28;20021;-47
2022/01/12 10:32:34;;;;;;;8.00;3.95;;;26.30;73.60;;;;;;5064377;28;20029;-51
2022/01/12 10:35:01;;;;;;;8.77;4.28;;;26.30;73.60;;;;;;5063650;28;20102;-48
2022/01/12 10:37:27;;;;;;;9.75;3.90;;;26.30;73.60;;;;;;5063905;28;20031;-46
2022/01/12 10:39:55;;;;;;;17.10;4.72;;;26.30;73.60;;;;;;5063724;28;20281;-42
2022/01/12 10:42:27;;;;;;;7.90;4.45;;;26.30;73.80;;;;;;5064043;28;20028;-47
2022/01/12 10:45:03;;;;;;;7.60;3.90;;;26.30;73.70;;;;;;5063458;28;20028;-50
2022/01/12 10:47:32;;;;;;;11.40;4.40;;;26.30;73.80;;;;;;5066724;28;20033;-44
2022/01/12 10:50:05;;;;;;;15.25;4.90;;;26.30;73.90;;;;;;5070234;28;20017;-54
2022/01/12 10:52:38;;;;;;;11.18;4.60;;;26.30;74.00;;;;;;5070552;28;20037;-48
2022/01/12 10:55:08;;;;;;;10.10;4.63;;;26.30;74.00;;;;;;5070096;28;20033;-51
2022/01/12 10:57:44;;;;;;;13.65;4.97;;;26.30;74.10;;;;;;5070351;28;20229;-51
2022/01/12 11:00:20;;;;;;;57.78;6.63;;;26.30;74.30;;;;;;5070156;28;20083;-50
2022/01/12 11:02:59;;;;;;;35.72;6.35;;;26.30;74.50;;;;;;5070388;28;20055;-51
2022/01/12 11:05:29;;;;;;;24.80;5.50;;;26.30;74.40;;;;;;5070223;28;20218;-46
2022/01/12 11:07:56;;;;;;;31.50;6.38;;;26.30;74.50;;;;;;5070495;28;20025;-53
2022/01/12 11:10:25;;;;;;;33.63;6.63;;;26.30;74.60;;;;;;5070111;28;20044;-43
2022/01/12 11:12:52;;;;;;;23.38;6.00;;;26.30;74.70;;;;;;5070594;28;20316;-49
2022/01/12 11:15:20;;;;;;;20.13;5.95;;;26.30;74.80;;;;;;5070026;28;20017;-46
2022/01/12 11:17:49;;;;;;;35.35;7.72;;;26.30;74.90;;;;;;5056941;28;20198;-50
2022/01/12 11:20:30;;;;;;;24.67;6.47;;;26.30;75.10;;;;;;5051001;28;20045;-49
2022/01/12 11:23:09;;;;;;;24.40;6.18;;;26.30;75.20;;;;;;5050478;28;20021;-42
2022/01/12 11:25:46;;;;;;;22.70;6.35;;;26.30;75.40;;;;;;5050228;28;20056;-45
2022/01/12 11:28:18;;;;;;;28.88;6.97;;;26.30;75.40;;;;;;5050217;28;20026;-54
2022/01/12 11:30:50;;;;;;;25.95;6.38;;;26.30;76.00;;;;;;5049871;28;20020;-52
2022/01/12 11:33:21;;;;;;;30.85;6.97;;;26.30;75.60;;;;;;5049325;28;20033;-49
2022/01/12 11:35:50;;;;;;;35.53;7.45;;;26.30;75.60;;;;;;5065377;28;20100;-44
2022/01/12 11:38:35;;;;;;;28.35;6.72;;;26.30;75.70;;;;;;5063417;28;20088;-46
2022/01/12 11:41:35;;;;;;;57.28;7.68;;;26.30;75.80;;;;;;5065670;28;20187;-48
2022/01/12 11:44:04;;;;;;;40.30;7.68;;;26.30;76.00;;;;;;5033728;28;20038;-55
2022/01/12 11:46:46;;;;;;;29.52;7.00;;;26.20;76.00;;;;;;5053785;28;20081;-45
2022/01/12 11:49:24;;;;;;;33.47;7.07;;;26.30;76.20;;;;;;5049861;28;20022;-51
2022/01/12 11:51:51;;;;;;;37.53;8.00;;;26.20;76.00;;;;;;5049797;28;20263;-40
2022/01/12 11:54:20;;;;;;;43.55;9.35;;;26.20;76.10;;;;;;5049493;28;20021;-47
2022/01/12 11:56:56;;;;;;;72.05;9.13;;;26.30;76.20;;;;;;5049807;28;20028;-42
2022/01/12 11:59:24;;;;;;;46.25;8.18;;;26.20;76.20;;;;;;5056482;28;20055;-42
2022/01/12 12:02:07;;;;;;;37.78;7.50;;;26.20;76.20;;;;;;5066524;28;20025;-45
2022/01/12 12:04:34;;;;;;;34.83;6.88;;;26.20;76.10;;;;;;5067319;28;20025;-53
2022/01/12 12:07:13;;;;;;;37.13;6.47;;;26.20;76.00;;;;;;5066889;28;20067;-51
2022/01/12 12:09:43;;;;;;;32.05;6.30;;;26.20;76.10;;;;;;5066374;28;20131;-47
2022/01/12 12:12:18;;;;;;;34.40;6.63;;;26.20;75.90;;;;;;5066378;28;20048;-44
2022/01/12 12:14:48;;;;;;;40.22;7.32;;;26.20;75.80;;;;;;5066189;28;20244;-47
2022/01/12 12:17:16;;;;;;;37.90;7.03;;;26.20;75.70;;;;;;5065273;28;20021;-48
2022/01/12 12:19:44;;;;;;;36.38;6.85;;;26.30;75.90;;;;;;5064369;28;20337;-54
2022/01/12 12:22:12;;;;;;;28.98;6.10;;;26.20;75.90;;;;;;5064758;28;20024;-52
2022/01/12 12:24:40;;;;;;;30.98;6.63;;;26.30;75.90;;;;;;5064371;28;20091;-48
2022/01/12 12:27:10;;;;;;;35.45;6.78;;;26.30;75.90;;;;;;5064419;28;20066;-50
2022/01/12 12:29:38;;;;;;;28.95;6.85;;;26.30;75.90;;;;;;5064214;28;20214;-48
2022/01/12 12:32:07;;;;;;;31.80;6.75;;;26.30;76.40;;;;;;5065071;28;20306;-52
2022/01/12 12:34:35;;;;;;;33.25;6.93;;;26.30;75.80;;;;;;5065817;28;20037;-49
2022/01/12 12:37:08;;;;;;;29.67;6.38;;;26.30;75.80;;;;;;5065997;28;20029;-54
2022/01/12 12:39:38;;;;;;;25.63;5.97;;;26.30;76.20;;;;;;5065666;28;20017;-49
2022/01/12 12:42:13;;;;;;;23.75;6.28;;;26.30;76.30;;;;;;5065990;28;20079;-48
2022/01/12 12:44:40;;;;;;;22.75;6.55;;;26.30;76.40;;;;;;5065829;28;20023;-49
2022/01/12 12:47:15;;;;;;;39.35;7.18;;;26.20;76.40;;;;;;5065814;28;20033;-51
2022/01/12 12:50:11;;;;;;;37.08;7.57;;;26.30;76.60;;;;;;5065470;28;20071;-49
2022/01/12 12:52:39;;;;;;;90.70;10.95;;;26.30;76.80;;;;;;5064966;28;20033;-45
2022/01/12 12:55:17;;;;;;;61.47;9.90;;;26.30;76.70;;;;;;5065404;28;20043;-51
2022/01/12 12:57:56;;;;;;;45.53;9.88;;;26.30;76.70;;;;;;5065660;28;20025;-45
2022/01/12 13:00:26;;;;;;;39.10;10.07;;;26.20;76.70;;;;;;5065329;28;20017;-47
2022/01/12 13:02:55;;;;;;;40.08;10.35;;;26.30;76.70;;;;;;5065636;28;20031;-50
2022/01/12 13:05:27;;;;;;;35.60;9.27;;;26.30;76.80;;;;;;5065203;28;20024;-44
2022/01/12 13:07:54;;;;;;;;;;;26.30;76.80;;;;;;5066041;28;20032;-56
2022/01/12 13:10:23;;;;;;;31.40;7.68;;;26.30;76.90;;;;;;5064980;28;20203;-45
2022/01/12 13:12:59;;;;;;;23.48;6.90;;;26.20;76.90;;;;;;5065549;28;20055;-46
2022/01/12 13:15:32;;;;;;;26.70;7.13;;;26.20;77.00;;;;;;5064866;28;20028;-49
2022/01/12 13:18:13;;;;;;;25.45;7.20;;;26.20;77.00;;;;;;5065365;28;20032;-45
2022/01/12 13:23:36;;;;;;;23.42;6.70;;;26.30;77.30;;;;;;5065110;28;20027;-51
2022/01/12 13:26:05;;;;;;;45.55;7.35;;;26.30;77.20;;;;;;5065079;28;20025;-46
2022/01/12 13:28:33;;;;;;;34.58;6.80;;;26.20;77.30;;;;;;5064854;28;20052;-52
2022/01/12 13:31:06;;;;;;;23.67;5.95;;;26.30;77.30;;;;;;5064839;28;20314;-47
2022/01/12 13:33:35;;;;;;;15.80;5.53;;;26.30;77.40;;;;;;5064512;28;20035;-51
2022/01/12 13:36:25;;;;;;;13.93;5.45;;;26.30;77.50;;;;;;5064737;28;20049;-46
2022/01/12 13:39:05;;;;;;;15.35;5.50;;;26.30;77.40;;;;;;5064733;28;20021;-46
2022/01/12 13:41:37;;;;;;;16.48;5.35;;;26.30;77.50;;;;;;5064722;28;20080;-51
2022/01/12 13:44:15;;;;;;;15.55;5.28;;;26.30;77.50;;;;;;5064625;28;20021;-47
2022/01/12 13:47:03;;;;;;;24.15;5.60;;;26.30;77.20;;;;;;5064633;28;20025;-45
2022/01/12 13:49:29;;;;;;;16.92;6.53;;;26.30;77.20;;;;;;5064603;28;20047;-45
2022/01/12 13:52:08;;;;;;;18.90;7.85;;;26.30;77.00;;;;;;5064767;28;20245;-46
2022/01/12 13:54:38;;;;;;;32.88;7.95;;;26.30;76.60;;;;;;5064196;28;20025;-45
2022/01/12 13:57:06;;;;;;;37.28;9.13;;;26.30;76.20;;;;;;5064474;28;20023;-43
2022/01/12 13:59:48;;;;;;;26.00;9.43;;;26.30;75.70;;;;;;5064087;28;20023;-49
2022/01/12 14:02:17;;;;;;;29.17;11.20;;;26.30;75.50;;;;;;5064301;28;20025;-50
2022/01/12 14:04:58;;;;;;;22.55;12.43;;;26.30;75.40;;;;;;5064009;28;20315;-46
2022/01/12 14:07:30;;;;;;;19.08;10.63;;;26.30;75.40;;;;;;5048675;28;20033;-48
2022/01/12 14:09:58;;;;;;;20.50;9.40;;;26.30;75.30;;;;;;5064306;28;20025;-49
2022/01/12 14:12:29;;;;;;;18.00;8.32;;;26.30;75.20;;;;;;5064418;28;20037;-47
2022/01/12 14:15:03;;;;;;;16.95;8.00;;;26.30;75.10;;;;;;5063811;28;20025;-51
2022/01/12 14:17:43;;;;;;;16.15;7.60;;;26.30;75.00;;;;;;5064112;28;20063;-47